createdAt,value
2022-11-15T00:01:35.221Z,5.62
2022-11-15T00:04:20.706Z,5.61
2022-11-15T00:07:06.172Z,5.57
2022-11-15T00:09:51.692Z,5.53
2022-11-15T00:12:37.265Z,5.54
2022-11-15T00:15:23.849Z,5.53
2022-11-15T00:18:15.799Z,5.50
2022-11-15T00:21:07.755Z,5.48
2022-11-15T00:23:53.379Z,5.48
2022-11-15T00:26:38.822Z,5.45
2022-11-15T00:29:24.427Z,5.39
2022-11-15T00:32:09.915Z,5.35
2022-11-15T00:34:55.631Z,5.33
2022-11-15T00:37:41.113Z,5.29
2022-11-15T00:40:26.884Z,5.25
2022-11-15T00:43:12.432Z,5.21
2022-11-15T00:45:58.219Z,5.16
2022-11-15T00:48:43.570Z,5.16
2022-11-15T00:51:29.849Z,5.20
2022-11-15T00:54:15.260Z,5.20
2022-11-15T00:57:00.795Z,5.21
2022-11-15T00:59:46.293Z,5.24
2022-11-15T01:02:31.718Z,5.19
2022-11-15T01:05:17.560Z,5.18
2022-11-15T01:08:03.092Z,5.17
2022-11-15T01:10:48.569Z,5.13
2022-11-15T01:13:35.940Z,5.08
2022-11-15T01:16:21.449Z,5.09
2022-11-15T01:19:07.326Z,5.12
2022-11-15T01:21:53.156Z,5.11
2022-11-15T01:24:38.927Z,5.08
2022-11-15T01:27:24.828Z,5.05
2022-11-15T01:30:10.509Z,5.01
2022-11-15T01:32:56.281Z,5.13
2022-11-15T01:35:41.717Z,5.10
2022-11-15T01:38:27.385Z,4.97
2022-11-15T01:41:25.306Z,4.92
2022-11-15T01:44:49.006Z,4.91
2022-11-15T01:47:37.568Z,4.85
2022-11-15T01:50:29.819Z,4.77
2022-11-15T01:53:15.611Z,4.70
2022-11-15T01:56:05.492Z,4.67
2022-11-15T01:58:52.701Z,4.64
2022-11-15T02:01:39.510Z,4.65
2022-11-15T02:04:30.572Z,4.77
2022-11-15T02:07:19.507Z,4.96
2022-11-15T02:10:11.395Z,5.11
2022-11-15T02:12:58.028Z,5.09
2022-11-15T02:16:02.961Z,4.99
2022-11-15T02:19:24.550Z,5.00
2022-11-15T02:22:58.149Z,4.96
2022-11-15T02:26:13.105Z,4.84
2022-11-15T02:29:10.070Z,4.75
2022-11-15T02:32:10.645Z,4.67
2022-11-15T02:35:26.703Z,4.65
2022-11-15T02:38:44.018Z,4.63
2022-11-15T02:41:41.173Z,4.57
2022-11-15T02:44:33.973Z,4.49
2022-11-15T02:47:22.376Z,4.49
2022-11-15T02:50:14.042Z,4.50
2022-11-15T02:52:59.753Z,4.48
2022-11-15T02:55:49.205Z,4.45
2022-11-15T02:59:21.203Z,4.43
2022-11-15T03:02:20.180Z,4.41
2022-11-15T03:06:17.298Z,4.41
2022-11-15T03:09:30.131Z,4.47
2022-11-15T03:12:34.986Z,4.55
2022-11-15T03:15:26.700Z,4.55
2022-11-15T03:18:22.607Z,4.52
2022-11-15T03:21:13.202Z,4.50
2022-11-15T03:24:02.634Z,4.53
2022-11-15T03:26:50.621Z,4.54
2022-11-15T03:29:42.945Z,4.55
2022-11-15T03:32:36.053Z,4.59
2022-11-15T03:35:28.202Z,4.64
2022-11-15T03:38:26.041Z,4.66
2022-11-15T03:41:25.209Z,4.69
2022-11-15T03:45:12.295Z,4.74
2022-11-15T03:48:10.559Z,4.79
2022-11-15T03:50:56.763Z,4.84
2022-11-15T03:53:42.619Z,4.85
2022-11-15T03:56:28.150Z,4.87
2022-11-15T03:59:13.609Z,4.88
2022-11-15T04:01:59.280Z,4.93
2022-11-15T04:04:44.551Z,4.96
2022-11-15T04:07:30.531Z,5.03
2022-11-15T04:10:16.972Z,5.08
2022-11-15T04:13:03.802Z,5.12
2022-11-15T04:15:49.451Z,5.17
2022-11-15T04:18:35.398Z,5.25
2022-11-15T04:21:39.628Z,5.31
2022-11-15T04:24:25.236Z,5.34
2022-11-15T04:27:11.365Z,5.33
2022-11-15T04:29:58.837Z,5.38
2022-11-15T04:32:44.731Z,5.33
2022-11-15T04:35:30.170Z,5.37
2022-11-15T04:38:15.988Z,5.35
2022-11-15T04:41:02.127Z,5.33
2022-11-15T04:43:48.049Z,5.14
2022-11-15T04:46:33.844Z,5.05
2022-11-15T04:49:19.288Z,5.00
2022-11-15T04:52:05.686Z,5.05
2022-11-15T04:54:51.267Z,4.98
2022-11-15T04:57:37.056Z,5.02
2022-11-15T05:00:22.535Z,5.01
2022-11-15T05:03:26.771Z,4.93
2022-11-15T05:06:12.426Z,4.91
2022-11-15T05:08:58.684Z,4.93
2022-11-15T05:11:44.671Z,4.96
2022-11-15T05:14:30.654Z,4.96
2022-11-15T05:17:16.308Z,5.00
2022-11-15T05:20:01.857Z,5.01
2022-11-15T05:22:47.502Z,5.04
2022-11-15T05:25:33.114Z,5.05
2022-11-15T05:28:18.715Z,5.03
2022-11-15T05:31:13.360Z,5.01
2022-11-15T05:34:01.298Z,5.03
2022-11-15T05:36:47.395Z,5.05
2022-11-15T05:39:33.010Z,5.06
2022-11-15T05:42:18.561Z,5.10
2022-11-15T05:45:07.445Z,5.13
2022-11-15T05:47:55.953Z,5.16
2022-11-15T05:50:46.329Z,5.17
2022-11-15T05:53:32.988Z,5.20
2022-11-15T05:56:18.763Z,5.23
2022-11-15T05:59:05.385Z,5.27
2022-11-15T06:01:51.344Z,5.30
2022-11-15T06:04:37.091Z,5.39
2022-11-15T06:07:22.666Z,5.31
2022-11-15T06:10:09.787Z,5.17
2022-11-15T06:13:03.800Z,5.14
2022-11-15T06:15:49.369Z,5.12
2022-11-15T06:18:35.699Z,5.14
2022-11-15T06:21:21.481Z,5.11
2022-11-15T06:24:07.836Z,5.16
2022-11-15T06:26:53.684Z,5.17
2022-11-15T06:29:39.935Z,5.22
2022-11-15T06:32:25.785Z,5.28
2022-11-15T06:35:11.569Z,5.34
2022-11-15T06:38:02.663Z,5.36
2022-11-15T06:40:48.146Z,5.41
2022-11-15T06:43:34.227Z,5.48
2022-11-15T06:46:19.825Z,5.56
2022-11-15T06:49:09.541Z,5.66
2022-11-15T06:51:55.536Z,5.74
2022-11-15T06:54:41.342Z,5.79
2022-11-15T06:57:26.604Z,5.85
2022-11-15T07:00:13.412Z,5.88
2022-11-15T07:03:01.381Z,5.89
2022-11-15T07:06:01.415Z,5.92
2022-11-15T07:08:51.107Z,5.94
2022-11-15T07:11:36.802Z,6.00
2022-11-15T07:14:22.527Z,6.05
2022-11-15T07:17:08.299Z,6.13
2022-11-15T07:19:53.897Z,6.19
2022-11-15T07:22:40.087Z,6.20
2022-11-15T07:25:26.338Z,6.10
2022-11-15T07:28:12.521Z,6.06
2022-11-15T07:30:58.681Z,6.04
2022-11-15T07:33:46.451Z,6.04
2022-11-15T07:36:32.929Z,6.07
2022-11-15T07:39:18.500Z,6.01
2022-11-15T07:42:22.711Z,6.03
2022-11-15T07:45:08.962Z,6.08
2022-11-15T07:47:55.013Z,6.16
2022-11-15T07:50:44.256Z,6.21
2022-11-15T07:53:30.232Z,6.29
2022-11-15T07:56:16.321Z,6.36
2022-11-15T07:59:02.253Z,6.40
2022-11-15T08:01:48.062Z,6.49
2022-11-15T08:04:33.823Z,6.44
2022-11-15T08:07:19.703Z,6.47
2022-11-15T08:10:08.317Z,6.53
2022-11-15T08:13:09.584Z,6.58
2022-11-15T08:16:06.631Z,6.62
2022-11-15T08:18:52.553Z,6.68
2022-11-15T08:21:38.566Z,6.77
2022-11-15T08:24:24.070Z,6.80
2022-11-15T08:27:16.086Z,6.80
2022-11-15T08:30:01.867Z,6.79
2022-11-15T08:32:47.667Z,6.74
2022-11-15T08:35:33.133Z,6.67
2022-11-15T08:38:18.558Z,6.69
2022-11-15T08:41:06.199Z,6.64
2022-11-15T08:43:51.574Z,6.67
2022-11-15T08:46:37.013Z,6.81
2022-11-15T08:49:22.569Z,6.91
2022-11-15T08:52:09.624Z,7.00
2022-11-15T08:54:55.255Z,7.07
2022-11-15T08:57:41.049Z,7.19
2022-11-15T09:00:26.556Z,7.24
2022-11-15T09:03:11.952Z,7.28
2022-11-15T09:05:59.112Z,7.32
2022-11-15T09:08:48.630Z,7.36
2022-11-15T09:11:34.466Z,7.35
2022-11-15T09:14:20.053Z,7.39
2022-11-15T09:17:10.243Z,7.48
2022-11-15T09:19:56.482Z,7.56
2022-11-15T09:22:41.875Z,7.58
2022-11-15T09:25:27.981Z,7.65
2022-11-15T09:28:13.532Z,7.78
2022-11-15T09:31:01.056Z,7.88
2022-11-15T09:33:47.446Z,7.96
2022-11-15T09:36:33.388Z,7.91
2022-11-15T09:39:19.022Z,7.85
2022-11-15T09:42:45.477Z,7.84
2022-11-15T09:46:06.757Z,7.78
2022-11-15T09:48:58.808Z,7.81
2022-11-15T09:51:51.365Z,7.83
2022-11-15T09:54:53.295Z,7.78
2022-11-15T09:57:33.791Z,7.75
2022-11-15T10:00:47.085Z,7.83
2022-11-15T10:03:24.728Z,8.03
2022-11-15T10:05:55.453Z,8.18
2022-11-15T10:08:53.257Z,8.34
2022-11-15T10:11:39.740Z,8.42
2022-11-15T10:14:17.493Z,8.47
2022-11-15T10:17:24.222Z,8.51
2022-11-15T10:20:06.239Z,8.61
2022-11-15T10:22:51.252Z,8.72
2022-11-15T10:25:32.217Z,8.77
2022-11-15T10:28:21.533Z,8.79
2022-11-15T10:30:51.259Z,8.85
2022-11-15T10:33:39.915Z,8.95
2022-11-15T10:36:29.842Z,9.10
2022-11-15T10:38:58.528Z,9.14
2022-11-15T10:41:36.482Z,9.27
2022-11-15T10:44:43.512Z,9.42
2022-11-15T10:47:28.985Z,9.67
2022-11-15T10:50:05.711Z,9.87
2022-11-15T10:52:35.674Z,10.14
2022-11-15T10:55:22.950Z,10.32
2022-11-15T10:58:30.647Z,10.52
2022-11-15T11:01:17.601Z,10.76
2022-11-15T11:03:58.315Z,11.02
2022-11-15T11:06:25.634Z,11.22
2022-11-15T11:09:04.303Z,11.34
2022-11-15T11:11:51.587Z,11.37
2022-11-15T11:14:28.547Z,11.52
2022-11-15T11:17:19.481Z,11.74
2022-11-15T11:19:57.042Z,12.02
2022-11-15T11:22:52.566Z,12.29
2022-11-15T11:25:29.936Z,12.44
2022-11-15T11:28:31.985Z,12.51
2022-11-15T11:38:10.235Z,12.86
2022-11-15T11:41:04.189Z,13.07
2022-11-15T11:44:06.892Z,13.21
2022-11-15T11:47:00.475Z,13.31
2022-11-15T11:52:50.707Z,13.66
2022-11-15T11:55:30.327Z,13.82
2022-11-15T12:01:45.363Z,14.09
2022-11-15T12:04:41.877Z,13.95
2022-11-15T12:07:25.686Z,13.90
2022-11-15T12:10:00.602Z,13.99
2022-11-15T12:12:54.385Z,14.09
2022-11-15T12:15:27.278Z,14.36
2022-11-15T12:17:56.795Z,14.32
2022-11-15T12:20:31.436Z,14.16
2022-11-15T12:23:05.083Z,14.19
2022-11-15T12:26:27.757Z,14.06
2022-11-15T12:29:25.070Z,13.95
2022-11-15T12:31:57.657Z,14.06
2022-11-15T12:34:38.215Z,14.08
2022-11-15T12:37:36.104Z,14.27
2022-11-15T12:40:32.797Z,14.08
2022-11-15T12:43:38.409Z,13.99
2022-11-15T12:46:12.637Z,13.90
2022-11-15T12:49:09.231Z,13.85
2022-11-15T12:52:07.232Z,13.93
2022-11-15T12:55:04.519Z,14.05
2022-11-15T12:57:37.402Z,13.99
2022-11-15T13:00:52.133Z,13.92
2022-11-15T13:03:27.885Z,13.90
2022-11-15T13:05:59.389Z,13.94
2022-11-15T13:08:45.068Z,13.94
2022-11-15T13:11:44.458Z,13.99
2022-11-15T13:14:50.248Z,14.13
2022-11-15T13:18:02.610Z,14.38
2022-11-15T13:20:33.753Z,14.48
2022-11-15T13:23:05.253Z,14.47
2022-11-15T13:25:58.564Z,14.38
2022-11-15T13:28:37.915Z,14.38
2022-11-15T13:31:43.383Z,14.35
2022-11-15T13:34:54.985Z,14.27
2022-11-15T13:37:32.231Z,14.24
2022-11-15T13:40:21.123Z,14.30
2022-11-15T13:42:48.366Z,14.44
2022-11-15T13:45:18.885Z,14.56
2022-11-15T13:47:46.044Z,14.58
2022-11-15T13:50:14.673Z,14.81
2022-11-15T13:52:46.914Z,14.95
2022-11-15T13:55:22.847Z,14.87
2022-11-15T13:57:54.095Z,15.01
2022-11-15T14:00:47.624Z,15.18
2022-11-15T14:03:34.215Z,15.41
2022-11-15T14:06:16.435Z,15.13
2022-11-15T14:09:31.347Z,15.15
2022-11-15T14:11:58.815Z,15.42
2022-11-15T14:14:28.219Z,15.62
2022-11-15T14:17:00.486Z,15.51
2022-11-15T14:19:39.059Z,15.40
2022-11-15T14:22:32.155Z,14.98
2022-11-15T14:25:23.630Z,14.44
2022-11-15T14:28:17.399Z,14.01
2022-11-15T14:30:51.346Z,13.67
2022-11-15T14:33:32.483Z,13.10
2022-11-15T14:36:19.885Z,12.57
2022-11-15T14:38:47.789Z,12.06
2022-11-15T14:41:27.439Z,11.78
2022-11-15T14:43:54.673Z,11.63
2022-11-15T14:46:21.669Z,11.45
2022-11-15T14:48:48.830Z,11.25
2022-11-15T14:51:18.526Z,11.06
2022-11-15T14:53:46.898Z,10.91
2022-11-15T14:56:15.181Z,10.78
2022-11-15T14:58:42.345Z,10.79
2022-11-15T15:01:19.256Z,10.58
2022-11-15T15:03:46.789Z,10.45
2022-11-15T15:06:17.982Z,10.21
2022-11-15T15:08:47.239Z,10.10
2022-11-15T15:11:22.919Z,10.01
2022-11-15T15:13:50.093Z,9.97
2022-11-15T15:16:17.203Z,9.91
2022-11-15T15:18:44.759Z,9.86
2022-11-15T15:21:26.192Z,9.83
2022-11-15T15:23:55.186Z,9.80
2022-11-15T15:26:24.006Z,9.74
2022-11-15T15:28:53.115Z,9.69
2022-11-15T15:31:20.348Z,9.58
2022-11-15T15:33:47.608Z,9.45
2022-11-15T15:36:18.253Z,9.35
2022-11-15T15:38:47.945Z,9.30
2022-11-15T15:41:16.906Z,9.19
2022-11-15T15:43:44.385Z,9.15
2022-11-15T15:46:21.189Z,9.16
2022-11-15T15:48:48.480Z,9.15
2022-11-15T15:51:20.160Z,9.19
2022-11-15T15:53:49.499Z,9.20
2022-11-15T15:56:16.623Z,9.24
2022-11-15T15:58:43.695Z,9.20
2022-11-15T16:01:10.906Z,9.17
2022-11-15T16:03:38.290Z,9.28
2022-11-15T16:06:06.370Z,9.11
2022-11-15T16:08:47.439Z,8.91
2022-11-15T16:11:20.542Z,8.76
2022-11-15T16:13:47.453Z,8.78
2022-11-15T16:16:15.115Z,8.75
2022-11-15T16:18:42.918Z,8.65
2022-11-15T16:21:10.074Z,8.52
2022-11-15T16:23:37.188Z,8.43
2022-11-15T16:26:19.177Z,8.39
2022-11-15T16:28:46.154Z,8.39
2022-11-15T16:31:13.849Z,8.34
2022-11-15T16:33:41.412Z,8.28
2022-11-15T16:36:30.262Z,8.21
2022-11-15T16:38:58.807Z,8.15
2022-11-15T16:41:26.531Z,8.10
2022-11-15T16:43:53.757Z,8.07
2022-11-15T16:46:30.247Z,8.03
2022-11-15T16:48:57.825Z,7.98
2022-11-15T16:51:25.209Z,7.93
2022-11-15T16:53:52.387Z,7.93
2022-11-15T16:56:30.599Z,7.95
2022-11-15T16:58:59.250Z,7.98
2022-11-15T17:01:29.215Z,8.00
2022-11-15T17:03:56.500Z,8.00
2022-11-15T17:06:24.944Z,7.98
2022-11-15T17:08:52.341Z,7.97
2022-11-15T17:11:22.020Z,7.97
2022-11-15T17:13:49.888Z,8.00
2022-11-15T17:16:18.547Z,7.97
2022-11-15T17:18:45.940Z,7.92
2022-11-15T17:21:18.139Z,7.89
2022-11-15T17:23:46.143Z,7.86
2022-11-15T17:26:29.501Z,7.86
2022-11-15T17:28:59.411Z,7.87
2022-11-15T17:31:26.584Z,7.86
2022-11-15T17:33:53.705Z,7.86
2022-11-15T17:36:21.235Z,7.88
2022-11-15T17:38:56.568Z,7.89
2022-11-15T17:41:26.627Z,7.91
2022-11-15T17:43:53.704Z,7.86
2022-11-15T17:46:21.693Z,7.75
2022-11-15T17:48:49.454Z,7.71
2022-11-15T17:51:18.160Z,7.71
2022-11-15T17:53:46.994Z,7.69
2022-11-15T17:56:16.645Z,7.71
2022-11-15T17:58:52.827Z,7.65
2022-11-15T18:01:23.287Z,7.59
2022-11-15T18:03:50.768Z,7.56
2022-11-15T18:06:19.376Z,7.53
2022-11-15T18:08:48.155Z,7.49
2022-11-15T18:11:23.316Z,7.43
2022-11-15T18:13:57.177Z,7.39
2022-11-15T18:16:26.571Z,7.36
2022-11-15T18:18:55.278Z,7.28
2022-11-15T18:21:24.500Z,7.21
2022-11-15T18:23:57.002Z,7.16
2022-11-15T18:26:27.890Z,7.15
2022-11-15T18:28:57.568Z,7.16
2022-11-15T18:31:29.463Z,7.14
2022-11-15T18:33:59.795Z,7.11
2022-11-15T18:36:30.696Z,7.12
2022-11-15T18:39:00.794Z,7.14
2022-11-15T18:41:31.112Z,7.16
2022-11-15T18:44:00.075Z,7.16
2022-11-15T18:46:31.074Z,7.12
2022-11-15T18:49:01.068Z,7.02
2022-11-15T18:51:30.982Z,6.96
2022-11-15T18:54:00.673Z,6.90
2022-11-15T18:56:29.669Z,6.88
2022-11-15T18:58:59.380Z,6.86
2022-11-15T19:01:34.077Z,6.85
2022-11-15T19:04:06.010Z,6.86
2022-11-15T19:06:33.447Z,6.84
2022-11-15T19:09:00.815Z,6.83
2022-11-15T19:11:32.824Z,6.84
2022-11-15T19:14:03.338Z,6.86
2022-11-15T19:16:33.542Z,6.81
2022-11-15T19:19:03.645Z,6.77
2022-11-15T19:21:33.909Z,6.75
2022-11-15T19:24:01.788Z,6.75
2022-11-15T19:26:29.763Z,6.75
2022-11-15T19:29:01.830Z,6.78
2022-11-15T19:31:31.758Z,6.76
2022-11-15T19:34:00.605Z,6.77
2022-11-15T19:36:32.592Z,6.78
2022-11-15T19:39:05.289Z,6.77
2022-11-15T19:41:32.454Z,6.75
2022-11-15T19:43:59.621Z,6.74
2022-11-15T19:46:27.107Z,6.72
2022-11-15T19:48:54.712Z,6.73
2022-11-15T19:51:27.077Z,6.74
2022-11-15T19:53:56.728Z,6.63
2022-11-15T19:56:24.149Z,6.71
2022-11-15T19:58:53.059Z,6.88
2022-11-15T20:01:29.018Z,6.45
2022-11-15T20:03:59.074Z,6.42
2022-11-15T20:06:34.509Z,6.27
2022-11-15T20:09:01.591Z,6.12
2022-11-15T20:11:28.720Z,6.17
2022-11-15T20:14:00.797Z,5.95
2022-11-15T20:16:28.148Z,6.07
2022-11-15T20:18:55.129Z,5.97
2022-11-15T20:21:22.294Z,5.83
2022-11-15T20:23:51.175Z,5.75
2022-11-15T20:26:20.090Z,5.79
2022-11-15T20:28:48.375Z,5.87
2022-11-15T20:31:16.609Z,5.93
2022-11-15T20:33:43.819Z,5.98
2022-11-15T20:36:13.540Z,6.04
2022-11-15T20:38:40.908Z,6.06
2022-11-15T20:41:08.233Z,6.13
2022-11-15T20:43:35.367Z,6.19
2022-11-15T20:46:02.270Z,6.27
2022-11-15T20:48:29.420Z,6.35
2022-11-15T20:51:25.973Z,6.46
2022-11-15T20:53:53.071Z,6.53
2022-11-15T20:56:22.003Z,6.58
2022-11-15T20:58:50.796Z,6.68
2022-11-15T21:01:23.804Z,6.74
2022-11-15T21:03:57.646Z,6.79
2022-11-15T21:06:26.845Z,6.80
2022-11-15T21:09:13.285Z,6.82
2022-11-15T21:11:59.773Z,6.85
2022-11-15T21:14:27.020Z,6.87
2022-11-15T21:16:54.081Z,6.89
2022-11-15T21:19:27.287Z,6.93
2022-11-15T21:21:58.531Z,6.94
2022-11-15T21:24:25.620Z,7.00
2022-11-15T21:26:53.373Z,7.03
2022-11-15T21:29:20.591Z,7.07
2022-11-15T21:31:48.977Z,7.09
2022-11-15T21:34:17.487Z,7.08
2022-11-15T21:36:44.503Z,7.08
2022-11-15T21:39:11.861Z,7.09
2022-11-15T21:41:38.995Z,7.10
2022-11-15T21:44:06.083Z,7.07
2022-11-15T21:46:33.593Z,7.01
2022-11-15T21:49:00.700Z,6.96
2022-11-15T21:51:27.898Z,6.91
2022-11-15T21:53:56.379Z,6.89
2022-11-15T21:56:24.170Z,6.86
2022-11-15T21:58:51.335Z,6.84
2022-11-15T22:01:37.468Z,6.88
2022-11-15T22:04:06.600Z,6.79
2022-11-15T22:06:34.594Z,6.71
2022-11-15T22:09:02.315Z,6.69
2022-11-15T22:11:29.872Z,6.68
2022-11-15T22:13:57.073Z,6.65
2022-11-15T22:16:24.372Z,6.66
2022-11-15T22:18:51.512Z,6.65
2022-11-15T22:21:19.285Z,6.65
2022-11-15T22:23:46.604Z,6.67
2022-11-15T22:26:19.396Z,6.65
2022-11-15T22:28:49.186Z,6.61
2022-11-15T22:31:16.235Z,6.60
2022-11-15T22:33:43.313Z,6.60
2022-11-15T22:36:12.067Z,6.62
2022-11-15T22:38:39.526Z,6.61
2022-11-15T22:41:06.870Z,6.63
2022-11-15T22:43:34.472Z,6.61
2022-11-15T22:46:02.877Z,6.59
2022-11-15T22:48:35.745Z,6.59
2022-11-15T22:51:04.075Z,6.59
2022-11-15T22:53:31.336Z,6.60
2022-11-15T22:56:01.006Z,6.60
2022-11-15T22:58:30.425Z,6.55
2022-11-15T23:01:02.695Z,6.55
2022-11-15T23:03:31.522Z,6.56
2022-11-15T23:06:06.472Z,6.55
2022-11-15T23:08:33.859Z,6.56
2022-11-15T23:11:20.812Z,6.61
2022-11-15T23:13:51.757Z,6.59
2022-11-15T23:16:23.662Z,6.55
2022-11-15T23:18:56.576Z,6.52
2022-11-15T23:21:53.920Z,6.50
2022-11-15T23:24:21.683Z,6.44
2022-11-15T23:26:51.349Z,6.40
2022-11-15T23:29:20.625Z,6.38
2022-11-15T23:32:06.294Z,6.37
2022-11-15T23:34:36.449Z,6.35
2022-11-15T23:37:05.173Z,6.35
2022-11-15T23:39:32.629Z,6.34
2022-11-15T23:42:02.104Z,6.38
2022-11-15T23:44:33.157Z,6.39
2022-11-15T23:47:00.174Z,6.38
2022-11-15T23:49:27.412Z,6.39
2022-11-15T23:51:54.527Z,6.32
2022-11-15T23:54:21.599Z,6.20
2022-11-15T23:56:48.637Z,6.15
2022-11-15T23:59:15.855Z,6.15
